Time;durP1;ratioP1;P1;durP2;ratioP2;P2;SDS_P1;SDS_P2;PMS_P1;PMS_P2;Temp;Humidity;BMP_temperature;BMP_pressure;BME280_temperature;BME280_humidity;BME280_pressure;Samples;Min_cycle;Max_cycle;Signal;HPM_P1;HPM_P2
2023/08/14 00:01:45;;;;;;;5.15;3.00;;;;;;;23.70;55.91;101550.59;5007159;28;20478;-63
2023/08/14 00:04:11;;;;;;;5.57;3.25;;;;;;;23.70;56.06;101545.25;5006817;28;20030;-61
2023/08/14 00:06:36;;;;;;;6.60;3.20;;;;;;;23.70;56.24;101541.75;5006850;28;20033;-63
2023/08/14 00:09:01;;;;;;;5.43;3.38;;;;;;;23.68;56.11;101544.53;5006766;28;20470;-62
2023/08/14 00:11:27;;;;;;;6.20;3.20;;;;;;;23.68;55.78;101544.53;5006310;28;20462;-62
2023/08/14 00:13:54;;;;;;;6.33;3.33;;;;;;;23.68;56.15;101543.72;5007047;28;20029;-62
2023/08/14 00:16:19;;;;;;;5.57;3.20;;;;;;;23.67;55.70;101548.22;5006546;28;20351;-60
2023/08/14 00:18:45;;;;;;;7.90;3.35;;;;;;;23.66;56.11;101548.34;5006950;28;20116;-63
2023/08/14 00:21:11;;;;;;;4.78;2.92;;;;;;;23.65;55.67;101536.84;5006813;28;20036;-62
2023/08/14 00:23:36;;;;;;;4.90;2.60;;;;;;;23.66;56.00;101538.53;5005472;28;20030;-65
2023/08/14 00:26:01;;;;;;;6.95;3.13;;;;;;;23.65;55.92;101536.84;5006054;28;20064;-63
2023/08/14 00:28:27;;;;;;;4.63;2.60;;;;;;;23.64;56.00;101535.19;5006663;28;20033;-64
2023/08/14 00:30:52;;;;;;;6.53;3.10;;;;;;;23.64;55.78;101537.00;5005951;28;20538;-63
2023/08/14 00:33:17;;;;;;;6.60;3.10;;;;;;;23.63;55.71;101533.50;5005628;28;20272;-64
2023/08/14 00:35:42;;;;;;;5.43;3.00;;;;;;;23.64;56.08;101537.00;5005541;28;20329;-62
2023/08/14 00:38:08;;;;;;;6.03;3.20;;;;;;;23.64;55.63;101537.00;5005977;28;20057;-63
2023/08/14 00:40:33;;;;;;;6.30;3.35;;;;;;;23.63;55.85;101535.34;5006095;28;20475;-64
2023/08/14 00:42:58;;;;;;;5.85;3.67;;;;;;;23.61;55.95;101537.31;5006196;28;20165;-63
2023/08/14 00:45:24;;;;;;;7.40;3.00;;;;;;;23.61;55.82;101534.66;5005984;28;20606;-63
2023/08/14 00:47:49;;;;;;;5.22;3.05;;;;;;;23.60;56.02;101524.97;5006348;28;20026;-64
2023/08/14 00:50:16;;;;;;;4.95;2.88;;;;;;;23.58;55.66;101533.09;5006329;28;20067;-64
2023/08/14 00:52:46;;;;;;;6.55;3.33;;;;;;;23.59;55.42;101540.13;5006128;28;20042;-63
2023/08/14 00:55:19;;;;;;;5.45;3.13;;;;;;;23.57;55.74;101523.44;5006087;28;21585;-62
2023/08/14 00:57:45;;;;;;;7.97;3.20;;;;;;;23.58;55.36;101533.09;5004809;28;20040;-63
2023/08/14 01:00:12;;;;;;;5.85;3.35;;;;;;;23.58;55.60;101525.13;5005965;28;20038;-62
2023/08/14 01:02:38;;;;;;;5.43;3.25;;;;;;;23.57;55.56;101523.44;5006403;28;20179;-60
2023/08/14 01:05:05;;;;;;;6.25;3.22;;;;;;;23.57;55.30;101526.09;5006442;28;20066;-61
2023/08/14 01:07:31;;;;;;;6.03;3.40;;;;;;;23.56;55.84;101524.44;5006477;28;20068;-63
2023/08/14 01:09:56;;;;;;;5.10;3.00;;;;;;;23.55;55.45;101509.44;5006564;28;20447;-61
2023/08/14 01:12:42;;;;;;;7.07;3.35;;;;;;;23.55;55.61;101518.25;5006839;28;20354;-63
2023/08/14 01:15:48;;;;;;;5.80;3.40;;;;;;;23.54;55.56;101510.41;5007531;28;20120;-62
2023/08/14 01:18:17;;;;;;;5.50;3.08;;;;;;;23.54;55.80;101510.41;5006960;28;20052;-61
2023/08/14 01:21:05;;;;;;;6.78;3.15;;;;;;;23.54;55.36;101511.28;5007063;28;20034;-61
2023/08/14 01:24:00;;;;;;;5.13;3.00;;;;;;;23.52;55.60;101502.59;5006931;28;20046;-62
2023/08/14 01:26:28;;;;;;;6.80;3.03;;;;;;;23.53;55.39;101498.94;5006982;28;20037;-61
2023/08/14 01:28:54;;;;;;;5.97;3.30;;;;;;;23.52;55.18;101497.25;5007028;28;20147;-63
2023/08/14 01:31:19;;;;;;;5.47;2.88;;;;;;;23.51;55.61;101498.25;5006919;28;20042;-63
2023/08/14 01:33:45;;;;;;;4.72;2.72;;;;;;;23.50;55.79;101496.56;5007844;28;20393;-64
2023/08/14 01:36:39;;;;;;;7.93;3.15;;;;;;;23.50;55.39;101499.25;5007639;28;20038;-62
2023/08/14 01:39:09;;;;;;;7.00;3.38;;;;;;;23.51;55.22;101495.59;5006851;28;20042;-61
2023/08/14 01:41:43;;;;;;;5.07;3.08;;;;;;;23.50;55.72;101498.41;5007517;28;20042;-62
2023/08/14 01:44:12;;;;;;;5.75;3.40;;;;;;;23.49;55.66;101489.56;5007370;28;20046;-60
2023/08/14 01:46:42;;;;;;;7.03;3.22;;;;;;;23.50;55.61;101485.09;5007631;28;20068;-62
2023/08/14 01:49:11;;;;;;;5.63;2.80;;;;;;;23.48;55.66;101474.63;5010972;28;20065;-63
2023/08/14 01:51:38;;;;;;;6.38;3.25;;;;;;;23.49;55.59;101472.78;5010568;28;20521;-64
2023/08/14 01:54:04;;;;;;;5.53;2.90;;;;;;;23.46;55.37;101471.22;5010776;28;20092;-62
2023/08/14 01:56:29;;;;;;;5.70;3.13;;;;;;;23.48;55.37;101481.72;5011318;28;20171;-62
2023/08/14 01:58:55;;;;;;;5.05;2.90;;;;;;;23.47;55.17;101472.09;5010913;28;20470;-63
2023/08/14 02:01:20;;;;;;;5.82;2.97;;;;;;;23.46;55.54;101470.41;5010123;28;20520;-62
2023/08/14 02:03:45;;;;;;;6.30;3.20;;;;;;;23.46;55.05;101465.91;5009365;28;20034;-63
2023/08/14 02:06:11;;;;;;;4.28;2.80;;;;;;;23.46;55.32;101470.41;5009760;28;20041;-62
2023/08/14 02:08:36;;;;;;;5.75;3.05;;;;;;;23.45;55.35;101460.75;5009591;28;20033;-61
2023/08/14 02:11:08;;;;;;;5.88;3.28;;;;;;;23.44;55.10;101451.09;5009533;28;20085;-62
2023/08/14 02:13:33;;;;;;;5.78;3.45;;;;;;;23.44;55.33;101451.09;5009620;28;21151;-64
2023/08/14 02:15:59;;;;;;;5.70;3.35;;;;;;;23.44;55.45;101454.59;5008562;28;20430;-61
2023/08/14 02:18:24;;;;;;;6.80;3.15;;;;;;;23.45;55.16;101460.75;5009220;28;21032;-63
2023/08/14 02:20:51;;;;;;;4.88;3.03;;;;;;;23.44;55.30;101451.94;5009362;28;20034;-64
2023/08/14 02:23:17;;;;;;;6.63;3.00;;;;;;;23.43;55.03;101452.06;5009507;28;20034;-61
2023/08/14 02:25:42;;;;;;;5.55;2.85;;;;;;;23.42;55.23;101447.75;5009204;28;20029;-62
2023/08/14 02:28:08;;;;;;;6.43;2.70;;;;;;;23.44;55.17;101453.75;5008812;28;20129;-61
2023/08/14 02:30:41;;;;;;;5.40;3.20;;;;;;;23.41;55.38;101451.38;5008962;28;20029;-64
2023/08/14 02:33:06;;;;;;;5.78;3.10;;;;;;;23.42;55.49;101450.41;5008781;28;20034;-63
2023/08/14 02:35:32;;;;;;;5.57;3.10;;;;;;;23.41;55.31;101446.91;5009048;28;20489;-60
2023/08/14 02:37:57;;;;;;;4.97;3.10;;;;;;;23.41;55.09;101446.06;5009098;28;20037;-64
2023/08/14 02:40:22;;;;;;;6.85;2.88;;;;;;;23.42;55.02;101451.25;5009033;28;20037;-62
2023/08/14 02:42:48;;;;;;;4.93;3.13;;;;;;;23.41;55.12;101438.09;5008652;28;20038;-62
2023/08/14 02:45:13;;;;;;;5.07;2.90;;;;;;;23.41;55.11;101438.09;5009017;28;20282;-61
2023/08/14 02:47:38;;;;;;;5.40;2.80;;;;;;;23.41;55.38;101441.59;5007912;28;20052;-61
2023/08/14 02:50:04;;;;;;;5.45;2.83;;;;;;;23.41;55.03;101440.75;5008318;28;20291;-63
2023/08/14 02:52:30;;;;;;;6.55;3.40;;;;;;;23.41;54.84;101443.41;5007882;28;20115;-63
2023/08/14 02:54:55;;;;;;;5.32;2.83;;;;;;;23.40;54.78;101447.03;5008439;28;20108;-61
2023/08/14 02:57:20;;;;;;;4.93;3.17;;;;;;;23.39;54.93;101440.91;5008081;28;20057;-62
2023/08/14 02:59:45;;;;;;;5.38;2.85;;;;;;;23.40;54.70;101441.72;5007897;28;20324;-61
2023/08/14 03:02:11;;;;;;;5.60;2.83;;;;;;;23.39;54.81;101438.22;5007701;28;20470;-63
2023/08/14 03:04:36;;;;;;;4.63;2.72;;;;;;;23.38;55.25;101433.88;5008375;28;20037;-63
2023/08/14 03:07:01;;;;;;;6.53;3.10;;;;;;;23.39;54.99;101432.91;5008242;28;20030;-61
2023/08/14 03:09:27;;;;;;;5.65;2.72;;;;;;;23.39;54.87;101429.44;5007921;28;20402;-61
2023/08/14 03:11:52;;;;;;;5.55;3.30;;;;;;;23.37;55.22;101424.25;5008415;28;20108;-61
2023/08/14 03:14:17;;;;;;;5.32;2.45;;;;;;;23.37;54.75;101429.56;5008237;28;20025;-62
2023/08/14 03:16:43;;;;;;;4.70;2.97;;;;;;;23.36;54.79;101435.88;5007939;28;20036;-61
2023/08/14 03:19:08;;;;;;;6.03;2.90;;;;;;;23.36;54.86;101439.34;5008454;28;20528;-60
2023/08/14 03:21:33;;;;;;;5.32;2.60;;;;;;;23.37;54.81;101437.56;5008108;28;20525;-63
2023/08/14 03:23:59;;;;;;;7.78;3.00;;;;;;;23.36;54.75;101443.84;5008166;28;20036;-64
2023/08/14 03:26:24;;;;;;;4.40;2.60;;;;;;;23.36;55.15;101442.00;5008112;28;20034;-61
2023/08/14 03:28:49;;;;;;;6.03;2.75;;;;;;;23.34;54.71;101435.19;5008099;28;20033;-61
2023/08/14 03:31:15;;;;;;;7.15;2.95;;;;;;;23.34;54.79;101436.00;5007764;28;20466;-61
2023/08/14 03:33:40;;;;;;;5.78;2.90;;;;;;;23.34;54.80;101430.69;5007845;28;20033;-61
2023/08/14 03:36:05;;;;;;;5.05;3.03;;;;;;;23.34;54.68;101429.88;5007522;28;20398;-64
2023/08/14 03:38:31;;;;;;;5.40;2.92;;;;;;;23.33;54.93;101434.31;5007629;28;20105;-62
2023/08/14 03:40:57;;;;;;;4.55;2.80;;;;;;;23.33;54.78;101436.16;5007775;28;20036;-63
2023/08/14 03:43:22;;;;;;;5.30;2.80;;;;;;;23.32;54.52;101437.97;5007601;28;20064;-61
2023/08/14 03:45:48;;;;;;;4.63;2.67;;;;;;;23.33;54.94;101447.63;5007359;28;20050;-64
2023/08/14 03:48:13;;;;;;;5.50;2.70;;;;;;;23.32;54.49;101435.31;5007566;28;20038;-62
2023/08/14 03:50:38;;;;;;;5.57;2.53;;;;;;;23.33;54.68;101439.66;5007319;28;20034;-63
2023/08/14 03:53:04;;;;;;;4.22;2.70;;;;;;;23.33;54.61;101446.78;5006028;28;20026;-61
2023/08/14 03:55:29;;;;;;;4.25;2.40;;;;;;;23.32;54.78;101443.31;5007387;28;20501;-62
2023/08/14 03:57:56;;;;;;;6.85;2.75;;;;;;;23.31;54.30;101435.47;5007303;28;20038;-63
2023/08/14 04:00:21;;;;;;;4.32;2.45;;;;;;;23.31;54.53;101438.13;5007386;28;20030;-60
2023/08/14 04:02:47;;;;;;;4.43;2.60;;;;;;;23.31;54.20;101441.63;5007167;28;20144;-63
2023/08/14 04:05:12;;;;;;;4.35;2.60;;;;;;;23.31;54.50;101444.28;5006985;28;20068;-60
2023/08/14 04:07:38;;;;;;;5.15;2.67;;;;;;;23.31;54.71;101443.44;5007443;28;20044;-60
2023/08/14 04:10:03;;;;;;;5.65;2.70;;;;;;;23.28;54.26;101436.59;5006518;28;20037;-61
2023/08/14 04:12:28;;;;;;;5.15;2.60;;;;;;;23.30;54.39;101431.13;5006876;28;20026;-62
2023/08/14 04:14:54;;;;;;;5.43;2.58;;;;;;;23.30;54.80;101423.97;5006927;28;20034;-63
2023/08/14 04:17:19;;;;;;;4.32;2.47;;;;;;;23.29;54.43;101424.97;5006924;28;20095;-62
2023/08/14 04:19:44;;;;;;;4.97;2.65;;;;;;;23.26;54.77;101424.44;5007309;28;20037;-63
2023/08/14 04:22:10;;;;;;;5.22;2.53;;;;;;;23.29;54.40;101426.78;5006798;28;20084;-61
2023/08/14 04:24:35;;;;;;;4.78;2.78;;;;;;;23.28;54.27;101417.16;5006989;28;20025;-63
2023/08/14 04:27:00;;;;;;;5.45;2.60;;;;;;;23.26;54.33;101419.94;5004045;28;20068;-63
2023/08/14 04:29:25;;;;;;;5.00;2.80;;;;;;;23.27;54.66;101408.31;5006698;28;20467;-62
2023/08/14 04:31:51;;;;;;;5.22;2.42;;;;;;;23.27;54.54;101407.47;5006342;28;20080;-63
2023/08/14 04:34:16;;;;;;;7.35;2.90;;;;;;;23.27;54.78;101400.31;5006819;28;20026;-62
2023/08/14 04:36:41;;;;;;;5.05;2.92;;;;;;;23.25;54.78;101404.13;5006822;28;20045;-62
2023/08/14 04:39:10;;;;;;;5.40;2.58;;;;;;;23.26;54.41;101409.31;5007038;28;20038;-63
2023/08/14 04:41:36;;;;;;;4.13;2.58;;;;;;;23.25;54.36;101401.47;5006706;28;20038;-61
2023/08/14 04:44:01;;;;;;;5.18;2.55;;;;;;;23.25;54.23;101398.81;5006717;28;20034;-61
2023/08/14 04:46:34;;;;;;;4.43;2.80;;;;;;;23.24;54.74;101403.31;5006716;28;20038;-62
2023/08/14 04:49:00;;;;;;;4.90;2.50;;;;;;;23.25;54.15;101396.16;5006649;28;20063;-61
2023/08/14 04:51:27;;;;;;;5.43;2.92;;;;;;;23.25;54.18;101396.16;5006415;28;20501;-61
2023/08/14 04:53:56;;;;;;;5.65;2.75;;;;;;;23.23;54.76;101390.16;5006499;28;20034;-62
2023/08/14 04:56:22;;;;;;;4.78;2.90;;;;;;;23.24;54.45;101392.66;5006802;28;20104;-61
2023/08/14 04:58:47;;;;;;;5.63;3.22;;;;;;;23.24;54.70;101386.50;5006273;28;20467;-64
2023/08/14 05:01:12;;;;;;;7.20;3.30;;;;;;;23.24;54.25;101374.06;5007027;28;20533;-61
2023/08/14 05:03:38;;;;;;;4.90;2.70;;;;;;;23.25;54.76;101382.88;5005241;28;21188;-62
2023/08/14 05:06:04;;;;;;;5.28;2.90;;;;;;;23.22;54.15;101381.31;5006669;28;20116;-64
2023/08/14 05:08:30;;;;;;;4.85;2.80;;;;;;;23.23;54.70;101382.19;5006386;28;20034;-63
2023/08/14 05:10:55;;;;;;;4.78;3.05;;;;;;;23.23;54.18;101382.19;5006492;28;20096;-63
2023/08/14 05:13:21;;;;;;;4.50;2.87;;;;;;;23.22;54.21;101373.34;5006206;28;20034;-61
2023/08/14 05:15:48;;;;;;;4.63;2.72;;;;;;;23.23;54.43;101374.19;5006298;28;20751;-62
2023/08/14 05:18:14;;;;;;;5.80;3.13;;;;;;;23.24;54.86;101370.53;5005143;28;20062;-61
2023/08/14 05:20:43;;;;;;;5.93;3.00;;;;;;;23.23;54.38;101372.38;5006629;28;20061;-63
2023/08/14 05:23:09;;;;;;;6.00;2.75;;;;;;;23.22;54.71;101373.34;5009322;28;20183;-62
2023/08/14 05:25:34;;;;;;;4.72;2.70;;;;;;;23.22;54.63;101369.84;5010399;28;20503;-63
2023/08/14 05:28:00;;;;;;;5.13;2.85;;;;;;;23.23;54.44;101377.69;5008743;28;20030;-64
2023/08/14 05:30:25;;;;;;;4.93;2.60;;;;;;;23.21;54.40;101377.00;5010094;28;20087;-61
2023/08/14 05:32:50;;;;;;;5.40;2.70;;;;;;;23.22;54.41;101378.66;5010236;28;20263;-62
2023/08/14 05:35:16;;;;;;;4.83;2.60;;;;;;;23.22;54.65;101380.50;5010288;28;20475;-61
2023/08/14 05:37:42;;;;;;;5.57;3.00;;;;;;;23.22;54.70;101381.31;5010075;28;20366;-62
2023/08/14 05:40:08;;;;;;;4.72;2.50;;;;;;;23.21;54.73;101387.66;5010036;28;20033;-65
2023/08/14 05:42:33;;;;;;;4.85;2.72;;;;;;;23.22;55.13;101388.47;5009709;28;20038;-62
2023/08/14 05:44:58;;;;;;;4.97;2.58;;;;;;;23.22;54.47;101393.78;5010176;28;20080;-60
2023/08/14 05:47:24;;;;;;;6.97;2.75;;;;;;;23.22;54.50;101394.63;5008335;28;20173;-63
2023/08/14 05:49:49;;;;;;;5.63;2.45;;;;;;;23.22;55.19;101391.13;5009708;28;20026;-61
2023/08/14 05:52:14;;;;;;;5.03;2.83;;;;;;;23.23;55.01;101395.47;5009674;28;21176;-63
2023/08/14 05:54:40;;;;;;;5.20;2.47;;;;;;;23.22;54.67;101399.09;5009558;28;20601;-62
2023/08/14 05:57:05;;;;;;;4.72;2.83;;;;;;;23.21;54.64;101402.72;5008942;28;20608;-62
2023/08/14 05:59:31;;;;;;;5.05;2.67;;;;;;;23.20;54.87;101409.88;5009641;28;20471;-62
2023/08/14 06:01:56;;;;;;;4.53;2.78;;;;;;;23.23;55.34;101411.44;5009442;28;20030;-62
2023/08/14 06:04:21;;;;;;;4.50;2.53;;;;;;;23.22;54.94;101410.56;5009602;28;20474;-61
2023/08/14 06:06:47;;;;;;;4.80;2.80;;;;;;;23.23;54.87;101414.91;5009275;28;20041;-63
2023/08/14 06:09:12;;;;;;;5.57;2.80;;;;;;;23.22;54.88;101415.88;5009477;28;20462;-61
2023/08/14 06:11:37;;;;;;;4.85;2.95;;;;;;;23.22;55.21;101423.88;5009449;28;20459;-62
2023/08/14 06:14:03;;;;;;;4.57;2.47;;;;;;;23.25;55.20;101426.22;5009319;28;20042;-62
2023/08/14 06:16:28;;;;;;;4.85;2.63;;;;;;;23.25;54.82;101420.91;5008999;28;20026;-61
2023/08/14 06:18:53;;;;;;;5.45;2.63;;;;;;;23.27;54.95;101415.44;5009047;28;20029;-61
2023/08/14 06:21:19;;;;;;;7.13;2.75;;;;;;;23.28;55.61;101414.47;5009332;28;20406;-61
2023/08/14 06:23:44;;;;;;;4.93;2.85;;;;;;;23.28;55.34;101406.50;5008600;28;20034;-63
2023/08/14 06:26:10;;;;;;;4.55;2.67;;;;;;;23.26;55.59;101400.50;5008838;28;20034;-61
2023/08/14 06:28:35;;;;;;;6.35;2.67;;;;;;;23.29;55.34;101403.69;5008742;28;20101;-61
2023/08/14 06:31:03;;;;;;;4.43;2.50;;;;;;;23.25;55.75;101396.97;5009058;28;20037;-62
2023/08/14 06:33:29;;;;;;;6.28;2.75;;;;;;;23.26;55.38;101401.34;5007721;28;20042;-62
2023/08/14 06:35:55;;;;;;;4.72;2.58;;;;;;;23.26;55.80;101400.50;5009014;28;20475;-62
2023/08/14 06:38:20;;;;;;;5.15;2.78;;;;;;;23.25;55.78;101399.66;5008700;28;20168;-64
2023/08/14 06:40:45;;;;;;;5.82;2.88;;;;;;;23.25;55.75;101398.81;5008180;28;20105;-62
2023/08/14 06:43:11;;;;;;;5.43;2.72;;;;;;;23.25;55.76;101399.66;5007639;28;20041;-62
2023/08/14 06:45:36;;;;;;;5.70;3.20;;;;;;;23.22;55.75;101389.28;5007651;28;20406;-62
2023/08/14 06:48:02;;;;;;;6.35;2.90;;;;;;;23.22;56.22;101385.81;5006997;28;20030;-62
2023/08/14 06:50:27;;;;;;;4.80;2.58;;;;;;;23.25;56.38;101390.84;5007648;28;20038;-62
2023/08/14 06:52:52;;;;;;;5.53;2.67;;;;;;;23.24;56.14;101395.34;5006855;28;20029;-62
2023/08/14 06:55:18;;;;;;;6.50;2.60;;;;;;;23.26;56.04;101393.34;5006978;28;20122;-64
2023/08/14 06:57:43;;;;;;;7.25;2.72;;;;;;;23.26;55.73;101390.69;5006324;28;20034;-61
2023/08/14 07:00:13;;;;;;;4.78;2.40;;;;;;;23.26;56.11;101389.88;5007536;28;20120;-63
2023/08/14 07:02:39;;;;;;;7.38;2.60;;;;;;;23.25;56.14;101394.31;5007349;28;20034;-64
2023/08/14 07:05:05;;;;;;;6.25;2.95;;;;;;;23.27;56.58;101391.53;5006892;28;20125;-62
2023/08/14 07:07:31;;;;;;;5.45;2.47;;;;;;;23.28;57.01;101385.22;5007992;28;20984;-61
2023/08/14 07:09:56;;;;;;;5.82;2.83;;;;;;;23.29;56.89;101386.88;5006271;28;20478;-62
2023/08/14 07:12:22;;;;;;;5.50;2.42;;;;;;;23.32;56.86;101402.56;5007346;28;20034;-65
2023/08/14 07:14:47;;;;;;;6.82;2.72;;;;;;;23.33;56.95;101393.59;5008160;28;20120;-61
2023/08/14 07:17:13;;;;;;;6.95;2.50;;;;;;;23.31;56.81;101388.44;5007561;28;20038;-62
2023/08/14 07:19:38;;;;;;;4.47;2.53;;;;;;;23.36;57.05;101388.81;5006965;28;20034;-62
2023/08/14 07:22:04;;;;;;;5.35;2.67;;;;;;;23.41;56.70;101390.22;5006823;28;20069;-64
2023/08/14 07:24:29;;;;;;;5.15;2.50;;;;;;;23.44;57.13;101387.28;5006879;28;20066;-64
2023/08/14 07:26:55;;;;;;;4.82;2.40;;;;;;;23.45;57.13;101395.09;5006351;28;20120;-65
2023/08/14 07:29:20;;;;;;;4.38;2.28;;;;;;;23.48;56.37;101405.44;5006619;28;20062;-64
2023/08/14 07:31:45;;;;;;;6.40;2.78;;;;;;;23.49;56.94;101406.28;5006333;28;20036;-63
2023/08/14 07:34:11;;;;;;;5.55;2.83;;;;;;;23.50;56.40;101408.78;5006330;28;20084;-63
2023/08/14 07:36:36;;;;;;;8.98;2.65;;;;;;;23.50;56.48;101411.44;5006643;28;20022;-62
2023/08/14 07:39:02;;;;;;;7.18;2.65;;;;;;;23.51;56.41;101409.63;5005043;28;20034;-63
2023/08/14 07:41:27;;;;;;;7.45;2.65;;;;;;;23.47;56.53;101421.56;5006395;28;20034;-63
2023/08/14 07:43:53;;;;;;;4.47;2.60;;;;;;;23.45;56.88;101421.69;5006222;28;20455;-63
2023/08/14 07:46:18;;;;;;;6.38;2.40;;;;;;;23.48;56.40;101409.91;5006698;28;20437;-62
2023/08/14 07:48:44;;;;;;;7.60;2.88;;;;;;;23.51;56.68;101415.81;5006249;28;20034;-64
2023/08/14 07:51:10;;;;;;;5.25;2.05;;;;;;;23.55;56.25;101408.34;5005013;28;20153;-65
2023/08/14 07:53:35;;;;;;;6.03;2.50;;;;;;;23.54;56.55;101404.88;5004963;28;20435;-63
2023/08/14 07:56:00;;;;;;;6.85;2.38;;;;;;;23.53;56.27;101408.50;5006277;28;20037;-65
2023/08/14 07:58:26;;;;;;;5.43;2.40;;;;;;;23.53;56.59;101408.50;5006823;28;20453;-64
2023/08/14 08:00:52;;;;;;;5.05;2.40;;;;;;;23.54;56.87;101404.88;5005953;28;20053;-64
2023/08/14 08:03:17;;;;;;;4.18;2.50;;;;;;;23.57;56.59;101409.03;5007093;28;20145;-63
2023/08/14 08:05:43;;;;;;;5.03;2.25;;;;;;;23.55;56.66;101409.19;5007252;28;20112;-69
2023/08/14 08:08:08;;;;;;;5.20;2.40;;;;;;;23.55;56.21;101411.84;5006907;28;20041;-69
2023/08/14 08:10:34;;;;;;;5.38;2.42;;;;;;;23.59;56.42;101409.75;5006834;28;20041;-63
2023/08/14 08:12:59;;;;;;;6.47;2.60;;;;;;;23.58;56.25;101407.22;5006766;28;20061;-66
2023/08/14 08:15:24;;;;;;;5.22;2.40;;;;;;;23.60;56.16;101397.28;5005851;28;20034;-66
2023/08/14 08:17:50;;;;;;;5.32;2.38;;;;;;;23.59;56.64;101393.78;5005648;28;20083;-65
2023/08/14 08:20:15;;;;;;;5.72;2.60;;;;;;;23.57;56.56;101392.25;5006513;28;20484;-65
2023/08/14 08:22:40;;;;;;;4.95;2.50;;;;;;;23.54;56.47;101394.22;5006586;28;20026;-65
2023/08/14 08:25:06;;;;;;;5.23;2.63;;;;;;;23.58;56.62;101388.63;5006609;28;20053;-65
2023/08/14 08:27:31;;;;;;;5.10;2.63;;;;;;;23.57;56.20;101386.94;5006757;28;20374;-66
2023/08/14 08:29:57;;;;;;;6.07;2.50;;;;;;;23.60;56.41;101390.13;5006766;28;20033;-65
2023/08/14 08:32:23;;;;;;;4.70;2.10;;;;;;;23.61;56.33;101378.50;5006793;28;20030;-65
2023/08/14 08:34:48;;;;;;;4.22;2.17;;;;;;;23.65;55.93;101382.53;5006093;28;20628;-68
2023/08/14 08:37:16;;;;;;;6.80;2.15;;;;;;;23.63;56.06;101384.50;5005732;28;20034;-66
2023/08/14 08:39:41;;;;;;;6.22;2.28;;;;;;;23.63;56.25;101375.69;5005430;28;20064;-67
2023/08/14 08:42:11;;;;;;;5.78;2.00;;;;;;;23.60;56.10;101374.16;5005631;28;20467;-68
2023/08/14 08:44:42;;;;;;;4.65;2.20;;;;;;;23.60;56.27;101370.66;5005263;28;20057;-66
2023/08/14 08:47:10;;;;;;;5.28;2.33;;;;;;;23.61;56.34;101388.31;5005586;28;20049;-68
2023/08/14 08:49:35;;;;;;;6.80;2.05;;;;;;;23.63;56.40;101381.00;5005539;28;20068;-67
2023/08/14 08:52:02;;;;;;;7.32;2.30;;;;;;;23.60;56.28;101379.47;5005610;28;20077;-67
2023/08/14 08:54:29;;;;;;;5.82;2.50;;;;;;;23.61;56.77;101369.69;5004758;28;20038;-64
2023/08/14 08:56:57;;;;;;;5.13;2.10;;;;;;;23.57;56.45;101361.16;5009087;28;20022;-68
2023/08/14 08:59:23;;;;;;;5.50;2.20;;;;;;;23.57;56.72;101365.66;5011943;28;20021;-67
2023/08/14 09:01:49;;;;;;;4.70;2.05;;;;;;;23.58;57.24;101368.16;5011930;28;20079;-68
2023/08/14 09:04:15;;;;;;;3.78;1.85;;;;;;;23.59;56.73;101367.19;5011867;28;20033;-66
2023/08/14 09:06:40;;;;;;;5.50;2.15;;;;;;;23.61;56.74;101364.38;5011758;28;20172;-69
2023/08/14 09:09:07;;;;;;;5.72;2.03;;;;;;;23.62;57.13;101366.03;5011370;28;20038;-67
2023/08/14 09:11:33;;;;;;;4.22;2.00;;;;;;;23.62;56.86;101368.69;5011724;28;20037;-67
2023/08/14 09:13:59;;;;;;;4.50;2.08;;;;;;;23.63;56.88;101365.06;5011853;28;20048;-66
2023/08/14 09:16:27;;;;;;;7.63;2.13;;;;;;;23.60;57.22;101368.00;5011797;28;20454;-67
2023/08/14 09:18:56;;;;;;;5.90;2.05;;;;;;;23.57;57.42;101357.66;5011488;28;20112;-69
2023/08/14 09:21:21;;;;;;;8.25;2.17;;;;;;;23.63;57.26;101363.22;5011325;28;20044;-68
2023/08/14 09:23:47;;;;;;;7.25;2.20;;;;;;;23.63;57.21;101365.06;5012134;28;20456;-67
2023/08/14 09:26:12;;;;;;;5.53;2.13;;;;;;;23.63;56.97;101365.88;5011525;28;20502;-67
2023/08/14 09:28:38;;;;;;;4.57;2.10;;;;;;;23.65;56.76;101365.72;5011378;28;20073;-68
2023/08/14 09:31:06;;;;;;;4.80;2.25;;;;;;;23.63;56.78;101371.19;5011286;28;20092;-69
2023/08/14 09:33:31;;;;;;;5.35;1.70;;;;;;;23.65;56.72;101381.69;5011297;28;20033;-67
2023/08/14 09:35:58;;;;;;;4.57;2.33;;;;;;;23.64;56.66;101388.84;5011074;28;20034;-69
2023/08/14 09:38:23;;;;;;;7.13;2.20;;;;;;;23.66;56.77;101381.53;5011302;28;20038;-65
2023/08/14 09:40:54;;;;;;;4.50;2.03;;;;;;;23.67;56.91;101388.56;5011857;28;20100;-67
2023/08/14 09:43:21;;;;;;;6.63;2.45;;;;;;;23.67;56.90;101390.34;5011803;28;20030;-65
2023/08/14 09:45:47;;;;;;;5.45;1.98;;;;;;;23.66;56.72;101388.69;5011345;28;20080;-63
2023/08/14 09:48:19;;;;;;;4.47;1.98;;;;;;;23.65;57.00;101384.34;5012311;28;20040;-68
2023/08/14 09:50:50;;;;;;;5.55;1.92;;;;;;;23.65;56.57;101389.69;5011816;28;20479;-66
2023/08/14 09:53:22;;;;;;;5.20;1.85;;;;;;;23.63;56.60;101381.00;5011536;28;20461;-67
2023/08/14 09:55:48;;;;;;;9.25;2.22;;;;;;;23.66;56.53;101381.53;5011964;28;20048;-69
2023/08/14 09:58:17;;;;;;;6.28;2.00;;;;;;;23.67;56.70;101366.41;5012261;28;20030;-67
2023/08/14 10:00:45;;;;;;;5.28;1.83;;;;;;;23.67;56.81;101367.28;5012162;28;20390;-67
2023/08/14 10:03:12;;;;;;;4.75;1.98;;;;;;;23.68;56.97;101363.59;5011743;28;20034;-65
2023/08/14 10:05:38;;;;;;;8.82;2.40;;;;;;;23.70;56.73;101356.34;5012517;28;20055;-65
2023/08/14 10:08:08;;;;;;;6.32;2.20;;;;;;;23.69;56.61;101353.81;5010316;28;20041;-67
2023/08/14 10:10:36;;;;;;;5.28;2.00;;;;;;;23.71;56.65;101349.19;5007768;28;20036;-66
2023/08/14 10:13:05;;;;;;;4.18;1.77;;;;;;;23.72;56.50;101349.03;5007187;28;20475;-66
2023/08/14 10:15:41;;;;;;;4.05;1.73;;;;;;;23.69;56.53;101343.19;5007467;28;20045;-66
2023/08/14 10:18:13;;;;;;;8.60;2.08;;;;;;;23.66;55.96;101323.00;5007557;28;20064;-67
2023/08/14 10:20:40;;;;;;;5.50;1.88;;;;;;;23.77;55.93;101326.47;5007088;28;20486;-65
2023/08/14 10:23:08;;;;;;;6.88;1.83;;;;;;;23.72;56.35;101314.44;5007833;28;20116;-66
2023/08/14 10:25:36;;;;;;;3.55;1.90;;;;;;;23.76;56.23;101314.97;5007929;28;20030;-68
2023/08/14 10:28:02;;;;;;;6.47;2.10;;;;;;;23.80;55.87;101311.03;5007517;28;20130;-66
2023/08/14 10:30:29;;;;;;;4.95;1.92;;;;;;;23.79;55.81;101314.66;5006516;28;20506;-65
2023/08/14 10:32:55;;;;;;;6.25;2.00;;;;;;;23.81;56.28;101299.38;5007456;28;20057;-66
2023/08/14 10:35:22;;;;;;;9.10;1.80;;;;;;;23.81;56.34;101298.53;5007904;28;20069;-64
2023/08/14 10:37:48;;;;;;;5.10;1.80;;;;;;;23.80;56.22;101303.03;5008608;28;20044;-67
2023/08/14 10:40:24;;;;;;;7.38;1.77;;;;;;;23.79;56.25;101293.38;5008534;28;20113;-68
2023/08/14 10:42:57;;;;;;;4.88;1.70;;;;;;;23.79;56.04;101293.38;5008633;28;20033;-66
2023/08/14 10:45:27;;;;;;;3.70;1.73;;;;;;;23.82;55.99;101297.56;5008426;28;20050;-66
2023/08/14 10:47:58;;;;;;;4.38;1.90;;;;;;;23.82;56.33;101285.09;4972167;28;20050;-67
2023/08/14 10:50:25;;;;;;;4.40;1.60;;;;;;;23.87;56.25;101292.66;5008299;28;20069;-66
2023/08/14 10:52:52;;;;;;;4.95;1.67;;;;;;;23.85;56.20;101299.97;5008146;28;20040;-66
2023/08/14 10:55:41;;;;;;;6.80;1.70;;;;;;;23.88;56.01;101302.31;5006044;28;21197;-69
2023/08/14 10:58:28;;;;;;;5.40;1.90;;;;;;;23.94;55.61;101301.72;4109315;28;10000943;-69
2023/08/14 11:00:54;;;;;;;5.05;1.80;;;;;;;23.98;55.69;101297.75;5009499;28;20124;-66
2023/08/14 11:03:20;;;;;;;4.15;1.88;;;;;;;23.98;55.41;101302.25;5007009;28;20037;-69
2023/08/14 11:05:45;;;;;;;7.82;1.90;;;;;;;23.98;55.59;101308.41;5007132;28;20137;-71
2023/08/14 11:08:12;;;;;;;3.63;1.70;;;;;;;23.98;55.34;101308.41;5007226;28;20585;-68
2023/08/14 11:10:39;;;;;;;4.35;1.92;;;;;;;23.98;55.68;101308.41;5006836;28;20409;-69
2023/08/14 11:13:09;;;;;;;4.40;1.63;;;;;;;24.00;55.54;101314.38;5007175;28;20029;-66
2023/08/14 11:15:36;;;;;;;3.55;1.58;;;;;;;24.00;55.34;101311.72;5007714;28;20037;-65
2023/08/14 11:18:05;;;;;;;5.05;1.67;;;;;;;24.03;55.73;101313.25;5006407;28;20066;-67
2023/08/14 11:20:31;;;;;;;4.32;1.60;;;;;;;24.05;55.53;101305.94;5006102;28;20478;-68
2023/08/14 11:22:56;;;;;;;5.00;1.75;;;;;;;24.05;54.81;101306.81;5006569;28;20036;-68